Time;durP1;ratioP1;P1;durP2;ratioP2;P2;SDS_P1;SDS_P2;PMS_P1;PMS_P2;Temp;Humidity;BMP_temperature;BMP_pressure;BME280_temperature;BME280_humidity;BME280_pressure;Samples;Min_cycle;Max_cycle;Signal;HPM_P1;HPM_P2
2023/02/21 02:14:33;;;;;;;1.88;1.00;;;;;;;21.79;36.39;101719.94;5042337;28;20065;-82
2023/02/21 02:17:26;;;;;;;1.25;0.70;;;;;;;21.79;36.39;101723.41;5022166;28;20045;-82
2023/02/21 02:20:13;;;;;;;2.20;0.95;;;;;;;21.79;36.27;101717.28;5026883;28;20074;-83
2023/02/21 02:23:14;;;;;;;1.13;0.98;;;;;;;21.78;36.26;101715.63;5021194;28;20037;-82
2023/02/21 02:25:59;;;;;;;2.13;1.15;;;;;;;21.77;36.40;101716.63;5024319;28;20035;-82
2023/02/21 02:28:53;;;;;;;1.63;0.90;;;;;;;21.77;36.48;101717.47;5010320;28;20076;-83
2023/02/21 02:31:31;;;;;;;2.58;1.30;;;;;;;21.77;36.34;101717.47;5023822;28;20037;-83
2023/02/21 02:34:15;;;;;;;2.08;1.10;;;;;;;21.77;36.19;101720.13;5018320;28;20475;-83
2023/02/21 02:36:48;;;;;;;1.92;1.15;;;;;;;21.74;36.11;101719.63;5026561;28;20045;-82
2023/02/21 02:39:38;;;;;;;1.38;0.85;;;;;;;21.77;36.25;101727.25;5004706;28;20075;-82
2023/02/21 02:42:04;;;;;;;1.35;1.20;;;;;;;21.76;36.29;101725.59;5028810;28;20048;-82
2023/02/21 02:44:50;;;;;;;1.02;0.70;;;;;;;21.74;36.59;101725.75;5036759;28;20036;-83
2023/02/21 02:47:30;;;;;;;1.48;1.08;;;;;;;21.75;36.44;101738.03;5024005;28;20025;-83
2023/02/21 02:49:58;;;;;;;1.10;1.00;;;;;;;21.71;36.23;101734.03;5021927;28;20064;-83
2023/02/21 02:52:25;;;;;;;1.42;0.80;;;;;;;21.74;36.55;101738.19;5024526;28;20594;-83
2023/02/21 02:55:04;;;;;;;1.83;1.45;;;;;;;21.68;36.62;101735.19;5019763;28;20060;-83
2023/02/21 02:57:39;;;;;;;1.50;1.08;;;;;;;21.70;36.68;101738.50;5022421;28;20138;-83
2023/02/21 03:00:09;;;;;;;1.13;0.80;;;;;;;21.68;36.42;101732.56;4999632;28;20721;-83
2023/02/21 03:02:41;;;;;;;1.95;1.20;;;;;;;21.73;36.38;101736.53;5025300;28;20042;-82
2023/02/21 03:05:42;;;;;;;1.45;1.13;;;;;;;21.68;36.45;101732.56;5044195;28;20046;-83
2023/02/21 03:08:21;;;;;;;0.85;0.85;;;;;;;21.72;36.79;101740.97;5002943;28;20371;-83
2023/02/21 03:11:05;;;;;;;1.02;0.90;;;;;;;21.73;36.77;101742.66;5028802;28;20045;-83
2023/02/21 03:13:53;;;;;;;1.02;0.82;;;;;;;21.74;36.55;101740.84;5019344;28;20093;-83
2023/02/21 03:16:33;;;;;;;0.90;0.85;;;;;;;21.72;36.46;101748.94;5013247;28;20033;-83
2023/02/21 03:19:03;;;;;;;1.88;0.93;;;;;;;21.71;36.73;101749.94;5024105;28;20024;-83
2023/02/21 03:21:41;;;;;;;1.25;1.00;;;;;;;21.67;36.77;101745.97;5017923;28;20497;-82
2023/02/21 03:24:10;;;;;;;0.60;0.50;;;;;;;21.69;36.56;101746.63;5022970;28;20061;-83
2023/02/21 03:26:39;;;;;;;0.65;0.65;;;;;;;21.74;36.57;101756.75;5020144;28;20090;-83
2023/02/21 03:29:24;;;;;;;1.13;1.02;;;;;;;21.67;36.59;101743.31;5022795;28;20669;-83
2023/02/21 03:34:52;;;;;;;1.60;1.27;;;;;;;21.76;36.91;101762.72;5021154;28;20029;-83
2023/02/21 03:37:38;;;;;;;0.93;0.85;;;;;;;21.74;36.63;101765.53;5025230;28;20029;-83
2023/02/21 03:40:08;;;;;;;1.42;1.17;;;;;;;21.74;36.86;101756.75;5019999;28;20033;-83
2023/02/21 03:42:33;;;;;;;1.02;0.90;;;;;;;21.74;36.76;101767.34;5029998;28;20040;-83
2023/02/21 03:45:00;;;;;;;0.98;0.80;;;;;;;21.75;36.48;101769.00;5019344;28;20037;-83
2023/02/21 03:47:26;;;;;;;1.20;1.05;;;;;;;21.70;36.96;101754.41;4999602;28;20777;-83
2023/02/21 03:49:51;;;;;;;1.00;0.80;;;;;;;21.75;36.85;101763.72;5019164;28;20045;-83
2023/02/21 03:52:17;;;;;;;0.85;0.85;;;;;;;21.74;36.48;101768.19;5023303;28;20075;-83
2023/02/21 03:54:43;;;;;;;1.00;0.90;;;;;;;21.74;36.52;101765.53;5020544;28;20053;-83
2023/02/21 03:57:12;;;;;;;0.98;0.98;;;;;;;21.74;36.43;101762.06;5022166;28;20152;-82
2023/02/21 03:59:40;;;;;;;1.42;1.00;;;;;;;21.74;36.86;101768.19;5006505;28;20034;-83
2023/02/21 04:02:07;;;;;;;1.13;0.90;;;;;;;21.70;36.63;101748.28;4996750;28;20324;-82
2023/02/21 04:04:33;;;;;;;1.23;0.90;;;;;;;21.74;36.52;101752.28;5000745;28;20034;-82
2023/02/21 04:07:09;;;;;;;1.92;1.25;;;;;;;21.63;36.60;101729.59;5025703;28;20046;-83
2023/02/21 04:09:34;;;;;;;1.75;1.20;;;;;;;21.61;36.83;101736.06;5037311;28;20137;-82
2023/02/21 04:12:00;;;;;;;1.17;0.85;;;;;;;21.61;36.83;101736.91;5023166;28;20038;-82
2023/02/21 04:14:29;;;;;;;1.00;0.90;;;;;;;21.72;36.93;101756.91;5043997;28;20025;-83
2023/02/21 04:16:54;;;;;;;1.77;0.93;;;;;;;21.71;37.10;101763.19;5019021;28;20065;-81
2023/02/21 04:19:21;;;;;;;0.77;0.70;;;;;;;21.67;36.54;101745.97;5008478;28;20084;-82
2023/02/21 04:21:47;;;;;;;1.15;0.95;;;;;;;21.71;36.87;101766.66;5024123;28;20052;-82
2023/02/21 04:24:13;;;;;;;1.33;1.23;;;;;;;21.68;36.82;101769.66;5028750;28;20049;-82
2023/02/21 04:26:40;;;;;;;0.95;0.80;;;;;;;21.68;36.87;101782.91;5025033;28;20044;-82
2023/02/21 04:29:06;;;;;;;1.23;0.82;;;;;;;21.70;36.94;101774.78;5025932;28;20025;-82
2023/02/21 04:31:32;;;;;;;0.82;0.60;;;;;;;21.68;36.96;101771.50;5029116;28;20037;-82
2023/02/21 04:34:01;;;;;;;0.88;0.88;;;;;;;21.72;36.97;101767.50;5005808;28;20067;-82
2023/02/21 04:36:26;;;;;;;0.85;0.80;;;;;;;21.67;36.95;101764.53;5011810;28;20881;-82
2023/02/21 04:38:53;;;;;;;1.58;1.15;;;;;;;21.69;36.73;101771.31;5022913;28;20622;-82
2023/02/21 04:41:19;;;;;;;1.05;0.93;;;;;;;21.61;36.70;101749.31;5025922;28;20045;-82
2023/02/21 04:43:45;;;;;;;1.05;1.02;;;;;;;21.68;36.76;101769.66;5025234;28;20037;-82
2023/02/21 04:46:14;;;;;;;1.58;1.00;;;;;;;21.62;36.62;101761.56;5022499;28;20414;-82
2023/02/21 04:48:44;;;;;;;1.45;1.35;;;;;;;21.67;36.72;101767.19;5027394;28;20045;-82
2023/02/21 04:51:10;;;;;;;;;;;;;;;21.68;36.75;101761.72;5000541;28;20505;-82
2023/02/21 04:53:36;;;;;;;1.10;0.80;;;;;;;21.69;36.73;101754.59;5027241;28;20023;-82
2023/02/21 04:56:02;;;;;;;1.13;1.00;;;;;;;21.68;36.73;101758.22;5024834;28;20052;-82
2023/02/21 04:58:27;;;;;;;1.38;1.05;;;;;;;21.64;36.89;101755.09;5024625;28;20049;-82
2023/02/21 05:00:53;;;;;;;0.68;0.68;;;;;;;21.67;36.81;101759.22;5023578;28;20049;-82
2023/02/21 05:03:19;;;;;;;1.05;0.73;;;;;;;21.59;36.80;101744.19;5029556;28;20041;-82
2023/02/21 05:05:44;;;;;;;1.10;1.00;;;;;;;21.66;36.92;101757.56;5014003;28;20041;-81
2023/02/21 05:08:09;;;;;;;1.23;0.98;;;;;;;21.66;36.97;101746.97;5014026;28;20048;-82
2023/02/21 05:10:35;;;;;;;1.60;0.95;;;;;;;21.66;37.12;101760.22;5029741;28;20042;-82
2023/02/21 05:13:00;;;;;;;0.90;0.90;;;;;;;21.63;36.87;101755.28;5029565;28;20698;-82
2023/02/21 05:15:26;;;;;;;0.90;0.90;;;;;;;21.56;36.72;101746.34;5027743;28;20050;-82
2023/02/21 05:17:52;;;;;;;1.70;1.15;;;;;;;21.58;36.79;101753.13;5018984;28;20050;-82
2023/02/21 05:20:17;;;;;;;1.23;0.95;;;;;;;21.63;36.74;101761.41;5029702;28;20045;-82
2023/02/21 05:22:43;;;;;;;0.80;0.80;;;;;;;21.63;37.12;101764.06;5026682;28;20508;-82
2023/02/21 05:25:20;;;;;;;1.23;1.00;;;;;;;21.61;37.09;101763.41;5003854;28;20048;-82
2023/02/21 05:27:46;;;;;;;1.30;1.20;;;;;;;21.64;36.94;101764.88;5031348;28;20041;-82
2023/02/21 05:30:14;;;;;;;1.13;0.85;;;;;;;21.66;36.98;101762.88;5026443;28;20116;-82
2023/02/21 05:32:40;;;;;;;0.90;0.90;;;;;;;21.64;36.74;101759.56;5022657;28;20026;-82
2023/02/21 05:35:06;;;;;;;1.30;1.10;;;;;;;21.60;36.92;101758.28;5025149;28;20123;-82
2023/02/21 05:37:32;;;;;;;0.63;0.63;;;;;;;21.62;37.06;101761.56;5023872;28;20044;-82
2023/02/21 05:39:58;;;;;;;1.50;1.10;;;;;;;21.51;37.06;101744.19;4995272;28;20131;-82
2023/02/21 05:42:23;;;;;;;1.35;1.25;;;;;;;21.61;36.71;101760.75;5023513;28;20049;-82
2023/02/21 05:44:49;;;;;;;1.20;1.10;;;;;;;21.60;36.93;101756.44;5017746;28;20037;-82
2023/02/21 05:47:15;;;;;;;0.93;0.80;;;;;;;21.49;36.87;101743.53;5021667;28;20040;-82
2023/02/21 05:49:41;;;;;;;1.02;0.93;;;;;;;21.61;36.67;101759.91;5029039;28;20107;-82
2023/02/21 05:52:08;;;;;;;1.10;0.82;;;;;;;21.62;36.79;101762.41;5026600;28;20045;-82
2023/02/21 05:54:33;;;;;;;0.93;0.93;;;;;;;21.61;36.83;101768.69;5024690;28;21875;-81
2023/02/21 05:56:59;;;;;;;0.95;0.90;;;;;;;21.61;36.87;101768.69;4996452;28;20040;-82
2023/02/21 05:59:24;;;;;;;1.25;1.15;;;;;;;21.61;36.79;101765.22;5022239;28;20049;-82
2023/02/21 06:01:50;;;;;;;1.60;1.00;;;;;;;21.58;36.99;101769.03;5027839;28;20026;-82
2023/02/21 06:04:16;;;;;;;1.25;1.10;;;;;;;21.61;37.06;101773.16;5027025;28;20550;-82
2023/02/21 06:06:42;;;;;;;1.35;0.90;;;;;;;21.59;36.71;101762.75;5025572;28;20042;-82
2023/02/21 06:09:09;;;;;;;1.02;0.93;;;;;;;21.60;36.87;101760.91;5027119;28;20509;-82
2023/02/21 06:11:36;;;;;;;1.48;0.90;;;;;;;21.50;36.78;101747.00;4998615;28;20014;-82
2023/02/21 06:14:04;;;;;;;0.68;0.68;;;;;;;21.57;37.00;101748.00;5021480;28;20057;-82
2023/02/21 06:16:35;;;;;;;0.85;0.85;;;;;;;21.58;36.99;101755.78;5020771;28;20079;-83
2023/02/21 06:19:01;;;;;;;0.95;0.90;;;;;;;21.59;36.64;101748.66;5020270;28;20042;-81
2023/02/21 06:21:27;;;;;;;0.93;0.93;;;;;;;21.57;36.86;101755.97;5024795;28;20120;-82
2023/02/21 06:23:52;;;;;;;1.13;1.00;;;;;;;21.58;36.66;101763.75;5021135;28;20397;-82
2023/02/21 06:26:19;;;;;;;1.20;1.10;;;;;;;21.49;37.04;101750.66;5036848;28;20180;-82
2023/02/21 06:28:46;;;;;;;1.50;1.27;;;;;;;21.56;37.08;101763.09;4998380;28;20045;-82
2023/02/21 06:31:11;;;;;;;1.73;1.33;;;;;;;21.56;36.78;101768.38;5016535;28;20033;-82
2023/02/21 06:33:37;;;;;;;0.90;0.80;;;;;;;21.54;37.02;101761.56;5030120;28;20048;-83
2023/02/21 06:36:09;;;;;;;1.15;1.02;;;;;;;21.45;37.25;101758.13;5022414;28;20041;-82
2023/02/21 06:38:35;;;;;;;0.90;0.90;;;;;;;21.55;37.09;101764.09;5021881;28;20120;-83
2023/02/21 06:41:05;;;;;;;0.82;0.82;;;;;;;21.54;36.91;101759.75;5023833;28;20057;-83
2023/02/21 06:43:31;;;;;;;0.80;0.80;;;;;;;21.53;36.89;101766.03;5004250;28;20037;-83
2023/02/21 06:45:57;;;;;;;1.33;1.23;;;;;;;21.52;36.66;101755.63;5030750;28;20087;-82
2023/02/21 06:48:22;;;;;;;1.00;1.00;;;;;;;21.56;37.21;101767.56;5019442;28;20049;-83
2023/02/21 06:50:48;;;;;;;1.05;1.02;;;;;;;21.47;36.83;101761.44;5022115;28;20052;-82
2023/02/21 06:53:14;;;;;;;1.58;1.38;;;;;;;21.54;37.47;101772.16;5025312;28;20112;-83
2023/02/21 06:55:39;;;;;;;1.20;1.10;;;;;;;21.52;36.75;101766.22;5028613;28;20033;-82
2023/02/21 06:58:05;;;;;;;1.13;1.00;;;;;;;21.56;36.78;101776.34;5024345;28;20053;-83
2023/02/21 07:00:31;;;;;;;1.10;1.00;;;;;;;21.41;37.00;101755.00;4997020;28;20033;-82
2023/02/21 07:02:56;;;;;;;1.10;1.00;;;;;;;21.56;37.11;101781.63;5020416;28;20033;-82
2023/02/21 07:05:22;;;;;;;1.52;1.20;;;;;;;21.56;36.81;101773.69;5022504;28;20464;-83
2023/02/21 07:07:47;;;;;;;1.58;1.25;;;;;;;21.53;37.25;101778.47;5022294;28;20058;-82
2023/02/21 07:10:13;;;;;;;0.93;0.93;;;;;;;21.55;37.11;101784.47;5027856;28;20408;-82
2023/02/21 07:12:38;;;;;;;2.10;1.10;;;;;;;21.53;37.11;101783.78;5029673;28;20045;-83
2023/02/21 07:15:05;;;;;;;1.13;1.02;;;;;;;21.54;37.09;101786.25;5022173;28;20131;-82
2023/02/21 07:17:31;;;;;;;1.42;0.98;;;;;;;21.26;37.10;101745.22;5000523;28;20037;-80
2023/02/21 07:19:57;;;;;;;0.95;0.85;;;;;;;21.53;37.26;101789.91;5022775;28;20035;-81
2023/02/21 07:22:25;;;;;;;0.80;0.80;;;;;;;21.57;37.09;101788.59;5021101;28;20037;-82
2023/02/21 07:24:52;;;;;;;0.98;0.98;;;;;;;21.67;37.19;101786.56;5022692;28;20045;-78
2023/02/21 07:27:18;;;;;;;1.80;1.13;;;;;;;21.54;37.04;101773.00;5021322;28;20083;-78
2023/02/21 07:29:48;;;;;;;1.48;1.02;;;;;;;21.64;37.07;101794.88;5025008;28;20120;-79
2023/02/21 07:32:16;;;;;;;1.38;1.15;;;;;;;21.63;37.29;101795.84;4996140;28;20037;-78
2023/02/21 07:34:42;;;;;;;0.93;0.63;;;;;;;21.68;36.99;101800.66;5024667;28;20662;-78
2023/02/21 07:37:07;;;;;;;0.73;0.73;;;;;;;21.66;37.13;101800.00;5022053;28;20060;-80
2023/02/21 07:39:33;;;;;;;0.80;0.80;;;;;;;21.66;37.21;101798.16;5018416;28;20033;-80
2023/02/21 07:41:59;;;;;;;0.77;0.73;;;;;;;21.63;37.12;101798.50;5020563;28;20411;-81
2023/02/21 07:44:28;;;;;;;0.80;0.80;;;;;;;21.67;36.97;101796.34;5006122;28;20049;-80
2023/02/21 07:46:55;;;;;;;0.95;0.90;;;;;;;21.65;36.99;101795.69;5019556;28;20564;-80
2023/02/21 07:49:21;;;;;;;0.82;0.80;;;;;;;21.69;36.95;101797.00;4986198;28;20134;-82
2023/02/21 07:51:46;;;;;;;0.88;0.77;;;;;;;21.68;36.84;101798.81;5021123;28;20041;-84
2023/02/21 07:54:12;;;;;;;1.27;1.05;;;;;;;21.71;36.65;101800.31;5024022;28;20057;-83
2023/02/21 07:56:46;;;;;;;0.95;0.85;;;;;;;21.68;37.07;101800.66;5016846;28;20056;-83
2023/02/21 07:59:11;;;;;;;1.13;0.90;;;;;;;21.69;37.04;101799.66;5017441;28;20037;-80
2023/02/21 08:01:37;;;;;;;1.08;1.00;;;;;;;21.68;36.79;101803.31;5023576;28;20053;-83
2023/02/21 08:04:03;;;;;;;1.15;1.00;;;;;;;21.70;36.94;101807.44;5002494;28;20037;-82
2023/02/21 08:06:29;;;;;;;0.98;0.85;;;;;;;21.65;36.88;101799.16;5010021;28;21315;-82
2023/02/21 08:08:54;;;;;;;0.80;0.80;;;;;;;21.71;36.81;101809.09;5019952;28;20423;-82
2023/02/21 08:11:20;;;;;;;0.93;0.73;;;;;;;21.74;36.91;101807.13;5017800;28;20037;-82
2023/02/21 08:13:46;;;;;;;0.90;0.85;;;;;;;21.73;36.67;101805.47;5022220;28;20045;-83
2023/02/21 08:16:12;;;;;;;0.75;0.75;;;;;;;21.74;36.52;101809.78;5022476;28;20403;-83
2023/02/21 08:18:37;;;;;;;0.90;0.70;;;;;;;21.73;36.88;101811.59;5008942;28;20052;-82
2023/02/21 08:21:06;;;;;;;0.70;0.70;;;;;;;21.73;36.86;101800.16;4998016;28;20050;-82
2023/02/21 08:23:32;;;;;;;1.08;1.00;;;;;;;21.73;36.85;101808.13;5018752;28;20092;-82
2023/02/21 08:25:57;;;;;;;1.08;0.93;;;;;;;21.71;36.92;101806.44;5025247;28;20053;-81
2023/02/21 08:28:23;;;;;;;1.85;1.40;;;;;;;21.62;37.58;101811.94;5017178;28;20044;-85
2023/02/21 08:30:48;;;;;;;0.93;0.80;;;;;;;21.70;37.38;101817.22;5022165;28;20037;-85
2023/02/21 08:33:14;;;;;;;1.75;1.02;;;;;;;21.73;36.72;101808.94;5018616;28;20045;-85
2023/02/21 08:35:39;;;;;;;0.98;0.80;;;;;;;21.78;36.97;101816.38;5011729;28;20037;-84
2023/02/21 08:38:05;;;;;;;0.90;0.80;;;;;;;21.79;36.70;101816.22;5004697;28;20487;-84
2023/02/21 08:40:31;;;;;;;0.80;0.77;;;;;;;21.73;36.69;101808.94;5018613;28;20033;-85
2023/02/21 08:42:59;;;;;;;1.10;0.80;;;;;;;21.80;36.59;101823.16;5016642;28;20046;-84
2023/02/21 08:45:26;;;;;;;0.77;0.68;;;;;;;21.81;36.61;101827.47;5014097;28;20038;-85
2023/02/21 08:47:53;;;;;;;0.88;0.88;;;;;;;21.81;36.80;101829.31;5017195;28;20040;-85
2023/02/21 08:50:21;;;;;;;0.80;0.80;;;;;;;21.80;36.55;101828.47;5017924;28;20093;-85
2023/02/21 08:52:47;;;;;;;0.80;0.80;;;;;;;21.80;36.56;101820.53;5002744;28;20068;-84
2023/02/21 08:55:13;;;;;;;1.02;0.90;;;;;;;21.80;36.85;101823.16;5021848;28;20089;-84
2023/02/21 08:57:38;;;;;;;1.05;0.95;;;;;;;21.81;36.78;101826.66;5022525;28;20148;-84
2023/02/21 09:00:09;;;;;;;1.73;1.60;;;;;;;21.35;37.84;101827.16;5023070;28;20041;-81
2023/02/21 09:02:38;;;;;;;0.82;0.77;;;;;;;21.66;37.13;101834.44;5019398;28;20029;-82
2023/02/21 09:05:07;;;;;;;1.25;1.10;;;;;;;21.62;36.92;101811.94;5017800;28;20048;-82
2023/02/21 09:07:33;;;;;;;1.27;1.10;;;;;;;21.77;36.77;101825.34;5018668;28;20416;-83
2023/02/21 09:09:59;;;;;;;2.70;0.90;;;;;;;21.78;36.76;101822.50;5004721;28;20049;-83
2023/02/21 09:12:25;;;;;;;0.75;0.75;;;;;;;21.80;37.05;101828.47;5018905;28;20037;-82
2023/02/21 09:14:50;;;;;;;0.80;0.80;;;;;;;21.81;36.99;101816.88;5018133;28;20503;-82
2023/02/21 09:17:16;;;;;;;0.60;0.60;;;;;;;21.81;36.74;101827.47;5020176;28;20056;-83
2023/02/21 09:19:43;;;;;;;1.00;0.90;;;;;;;21.82;36.38;101821.19;5023617;28;21427;-83
2023/02/21 09:22:10;;;;;;;0.65;0.60;;;;;;;21.78;36.67;101819.88;5018461;28;20049;-82
2023/02/21 09:24:36;;;;;;;0.73;0.70;;;;;;;21.83;36.37;101822.00;4998763;28;20068;-83
2023/02/21 09:27:02;;;;;;;0.80;0.77;;;;;;;21.84;36.54;101811.22;5022186;28;20049;-82
2023/02/21 09:29:33;;;;;;;1.20;0.90;;;;;;;21.83;36.38;101814.03;5042658;28;20100;-82
2023/02/21 09:32:00;;;;;;;0.65;0.65;;;;;;;21.84;36.50;101811.22;5017948;28;20065;-83
2023/02/21 09:34:26;;;;;;;0.95;0.95;;;;;;;21.85;36.75;101807.56;5022983;28;20034;-83
2023/02/21 09:36:53;;;;;;;1.13;0.82;;;;;;;21.83;36.47;101806.09;5024967;28;20195;-83
2023/02/21 09:39:21;;;;;;;0.80;0.80;;;;;;;21.84;36.66;101807.75;5019693;28;20042;-83
2023/02/21 09:41:47;;;;;;;1.15;1.05;;;;;;;21.85;36.35;101810.22;4999700;28;20048;-82
2023/02/21 09:44:20;;;;;;;1.02;0.90;;;;;;;21.85;36.52;101810.22;5023209;28;20055;-82
2023/02/21 09:46:48;;;;;;;1.38;0.70;;;;;;;21.85;36.65;101817.34;5024342;28;20129;-83
2023/02/21 09:49:29;;;;;;;0.77;0.77;;;;;;;21.86;36.65;101821.66;5026033;28;20056;-82
2023/02/21 09:51:55;;;;;;;0.68;0.68;;;;;;;21.86;36.37;101811.06;5022720;28;20052;-82
2023/02/21 09:54:38;;;;;;;0.85;0.65;;;;;;;21.85;36.29;101818.19;5019427;28;20180;-85
2023/02/21 09:57:10;;;;;;;0.77;0.77;;;;;;;21.84;36.57;101818.34;4993293;28;20025;-85
2023/02/21 09:59:35;;;;;;;0.80;0.80;;;;;;;21.85;36.58;101823.47;5018757;28;20041;-82
2023/02/21 10:02:12;;;;;;;0.80;0.80;;;;;;;21.85;36.46;101826.13;5016912;28;20045;-83
2023/02/21 10:05:08;;;;;;;1.02;0.98;;;;;;;21.86;36.38;101813.69;5020197;28;21935;-82
2023/02/21 10:07:46;;;;;;;0.65;0.65;;;;;;;21.85;36.43;101818.19;5021757;28;20128;-84
2023/02/21 10:10:23;;;;;;;0.90;0.70;;;;;;;21.87;36.63;101818.00;5018337;28;20566;-85
2023/02/21 10:13:15;;;;;;;0.82;0.82;;;;;;;21.86;36.43;101824.31;4998864;28;20048;-85
2023/02/21 10:16:01;;;;;;;0.90;0.90;;;;;;;21.85;36.51;101820.84;5019757;28;20046;-85
2023/02/21 10:18:50;;;;;;;0.57;0.57;;;;;;;21.87;36.34;101833.91;5022314;28;20064;-84
2023/02/21 10:21:24;;;;;;;0.60;0.60;;;;;;;21.81;36.29;101816.03;5004966;28;20041;-84
2023/02/21 10:23:53;;;;;;;1.08;0.90;;;;;;;21.87;36.51;101829.44;5018652;28;20541;-84
2023/02/21 10:26:25;;;;;;;0.93;0.80;;;;;;;21.87;36.48;101825.97;5021214;28;20049;-84
2023/02/21 10:28:51;;;;;;;0.63;0.60;;;;;;;21.89;36.10;101822.13;4990875;28;20046;-83
2023/02/21 10:31:31;;;;;;;1.02;0.95;;;;;;;21.87;36.50;101829.44;5018711;28;20044;-83
2023/02/21 10:33:58;;;;;;;0.68;0.68;;;;;;;21.83;36.24;101822.00;5038766;28;20036;-84
2023/02/21 10:36:26;;;;;;;0.82;0.82;;;;;;;21.84;36.07;101823.66;5021546;28;20100;-84
2023/02/21 10:39:05;;;;;;;1.15;0.80;;;;;;;21.80;36.31;101823.16;5021029;28;20501;-85
2023/02/21 10:41:37;;;;;;;0.70;0.70;;;;;;;21.88;36.15;101835.56;5020266;28;20041;-85
2023/02/21 10:44:09;;;;;;;0.77;0.77;;;;;;;21.81;36.03;101824.00;5007309;28;20037;-85
2023/02/21 10:47:07;;;;;;;1.30;1.08;;;;;;;21.87;36.44;101836.56;5022332;28;20136;-84
2023/02/21 10:49:55;;;;;;;1.00;0.90;;;;;;;21.87;36.33;101832.09;5017694;28;20046;-82
2023/02/21 10:52:20;;;;;;;0.77;0.77;;;;;;;21.83;36.32;101835.25;5021919;28;20071;-85
2023/02/21 10:55:24;;;;;;;0.80;0.80;;;;;;;21.87;36.23;101849.81;5022740;28;20049;-85
2023/02/21 10:57:55;;;;;;;1.02;0.82;;;;;;;21.89;36.06;101847.84;4943952;28;20061;-84
2023/02/21 11:00:36;;;;;;;0.75;0.75;;;;;;;21.86;36.51;101840.22;4924620;28;20095;-83
2023/02/21 11:03:14;;;;;;;0.80;0.80;;;;;;;21.88;36.33;101848.81;4992239;28;20036;-84
2023/02/21 11:05:47;;;;;;;1.00;0.65;;;;;;;21.89;36.46;101850.47;5018872;28;20733;-85
2023/02/21 11:08:12;;;;;;;0.63;0.63;;;;;;;21.89;36.29;101846.00;5023675;28;20024;-84
2023/02/21 11:10:43;;;;;;;0.68;0.68;;;;;;;21.88;36.07;101843.53;5021264;28;20046;-83
2023/02/21 11:13:12;;;;;;;0.70;0.70;;;;;;;21.88;36.17;101844.34;5021178;28;20123;-84
2023/02/21 11:15:38;;;;;;;0.90;0.70;;;;;;;21.87;36.41;101836.56;5020488;28;20164;-82
2023/02/21 11:18:13;;;;;;;0.80;0.80;;;;;;;21.88;36.06;101838.22;4992045;28;20075;-83
2023/02/21 11:20:38;;;;;;;0.63;0.63;;;;;;;21.85;36.23;101842.03;5024064;28;20029;-83
2023/02/21 11:23:16;;;;;;;0.65;0.65;;;;;;;21.89;36.32;101845.19;5021782;28;20667;-83
2023/02/21 11:25:42;;;;;;;0.73;0.70;;;;;;;21.88;36.36;101847.00;5021139;28;20098;-83
2023/02/21 11:28:11;;;;;;;0.65;0.65;;;;;;;21.92;35.90;101844.88;5014764;28;20037;-83
2023/02/21 11:31:00;;;;;;;0.50;0.50;;;;;;;21.88;36.24;101844.34;5019514;28;20485;-80
2023/02/21 11:33:26;;;;;;;1.30;0.93;;;;;;;21.87;36.38;101837.41;4985049;28;20049;-83
2023/02/21 11:36:07;;;;;;;0.80;0.70;;;;;;;21.86;36.13;101842.88;5021481;28;20041;-83
2023/02/21 11:38:37;;;;;;;0.77;0.77;;;;;;;21.87;36.44;101844.53;5021112;28;20133;-83
2023/02/21 11:41:19;;;;;;;0.63;0.63;;;;;;;21.87;36.28;101836.56;5018041;28;20337;-84
2023/02/21 11:43:50;;;;;;;1.77;1.02;;;;;;;21.88;36.36;101838.22;5013861;28;20045;-83
2023/02/21 11:46:19;;;;;;;0.57;0.55;;;;;;;21.88;36.05;101836.41;5024997;28;20060;-82
2023/02/21 11:49:05;;;;;;;0.60;0.60;;;;;;;21.85;36.36;101839.41;4992273;28;20128;-82
2023/02/21 11:51:44;;;;;;;1.10;1.00;;;;;;;21.79;36.41;101826.81;5011585;28;20050;-83
2023/02/21 11:54:10;;;;;;;0.88;0.70;;;;;;;21.82;36.10;101834.44;5020876;28;20049;-83
2023/02/21 11:57:10;;;;;;;0.57;0.57;;;;;;;21.86;36.28;101840.22;5017983;28;20156;-82
2023/02/21 11:59:44;;;;;;;0.65;0.65;;;;;;;21.88;36.48;101838.22;5019134;28;20547;-82
2023/02/21 12:02:37;;;;;;;0.60;0.60;;;;;;;21.87;36.34;101840.03;5023066;28;20099;-82
2023/02/21 12:05:31;;;;;;;0.70;0.68;;;;;;;21.90;36.01;101830.94;4992114;28;20798;-84
2023/02/21 12:08:26;;;;;;;0.55;0.55;;;;;;;21.79;36.34;101813.56;5021328;28;20037;-83
2023/02/21 12:11:16;;;;;;;0.63;0.63;;;;;;;21.88;36.21;101830.25;5021782;28;20091;-82
2023/02/21 12:13:41;;;;;;;;;;;;;;;21.86;36.25;101829.63;5015299;28;20056;-85
2023/02/21 12:16:15;;;;;;;0.80;0.80;;;;;;;21.89;36.12;101829.28;5014722;28;19917;-85
2023/02/21 12:19:14;;;;;;;0.70;0.70;;;;;;;21.87;36.47;101818.00;5021363;28;20089;-84
2023/02/21 12:22:18;;;;;;;0.77;0.77;;;;;;;21.83;35.99;101814.88;4992602;28;20052;-85
2023/02/21 12:24:58;;;;;;;0.80;0.80;;;;;;;21.90;36.29;101812.34;5021971;28;20487;-84
2023/02/21 12:27:43;;;;;;;0.80;0.80;;;;;;;21.82;36.02;101807.91;5023838;28;20029;-84
2023/02/21 12:30:35;;;;;;;0.82;0.73;;;;;;;21.86;36.08;101811.88;5022402;28;20034;-84
2023/02/21 12:33:35;;;;;;;0.75;0.73;;;;;;;21.87;36.11;101815.34;5018349;28;20088;-85
2023/02/21 12:36:30;;;;;;;1.50;0.93;;;;;;;21.88;36.24;101807.22;5007827;28;20049;-85
2023/02/21 12:39:04;;;;;;;0.85;0.82;;;;;;;21.90;36.02;101807.06;5011181;28;20057;-85
2023/02/21 12:41:42;;;;;;;0.52;0.52;;;;;;;21.89;36.26;101806.22;5021970;28;20545;-85
2023/02/21 12:44:37;;;;;;;0.75;0.70;;;;;;;21.93;36.03;101804.09;5015434;28;20554;-85
2023/02/21 12:47:12;;;;;;;1.13;0.70;;;;;;;21.89;36.29;101800.09;5023722;28;20046;-84
2023/02/21 12:50:00;;;;;;;0.75;0.75;;;;;;;21.91;36.09;101798.13;5021151;28;20047;-84
2023/02/21 12:52:32;;;;;;;0.60;0.60;;;;;;;21.89;36.16;101794.78;5018303;28;20049;-83
2023/02/21 12:55:23;;;;;;;0.60;0.60;;;;;;;21.88;35.99;101793.97;4993758;28;20052;-85
2023/02/21 12:58:24;;;;;;;0.65;0.65;;;;;;;21.92;35.89;101791.84;5017421;28;20053;-82
2023/02/21 13:01:14;;;;;;;0.70;0.70;;;;;;;21.91;36.25;101784.88;5024507;28;20041;-83
2023/02/21 13:04:01;;;;;;;0.55;0.55;;;;;;;21.91;36.19;101792.84;5027191;28;20068;-82
2023/02/21 13:06:32;;;;;;;0.70;0.70;;;;;;;21.91;35.94;101791.00;5028387;28;20042;-83
2023/02/21 13:09:13;;;;;;;0.80;0.80;;;;;;;21.82;36.20;101775.28;5004819;28;20037;-83
2023/02/21 13:11:55;;;;;;;0.60;0.60;;;;;;;21.89;36.29;101784.19;5022480;28;20061;-82
2023/02/21 13:14:31;;;;;;;0.57;0.57;;;;;;;21.87;36.33;101787.00;5024363;28;20442;-83
2023/02/21 13:16:56;;;;;;;1.17;1.10;;;;;;;21.86;36.23;101782.72;5016698;28;20044;-83
2023/02/21 13:19:24;;;;;;;1.02;0.75;;;;;;;21.88;36.33;101790.50;5021895;28;20037;-83
2023/02/21 13:22:27;;;;;;;0.60;0.60;;;;;;;21.86;36.04;101782.72;5019780;28;20049;-84
2023/02/21 13:25:12;;;;;;;0.80;0.77;;;;;;;21.88;36.32;101774.59;5011208;28;20037;-85
2023/02/21 13:27:55;;;;;;;0.70;0.70;;;;;;;21.88;36.30;101782.53;5019069;28;20463;-85
2023/02/21 13:30:38;;;;;;;0.65;0.65;;;;;;;21.88;36.13;101772.75;5017214;28;20125;-85
2023/02/21 13:33:04;;;;;;;0.50;0.45;;;;;;;21.89;35.98;101773.59;5023838;28;20687;-84
2023/02/21 13:35:36;;;;;;;0.43;0.43;;;;;;;21.88;36.49;101772.75;5025270;28;20120;-85
2023/02/21 13:38:06;;;;;;;0.80;0.70;;;;;;;21.88;36.16;101767.47;5020601;28;20033;-84
2023/02/21 13:40:34;;;;;;;0.75;0.75;;;;;;;21.86;35.92;101755.38;5021558;28;20109;-84
2023/02/21 13:43:04;;;;;;;0.95;0.95;;;;;;;21.89;36.10;101765.63;4999059;28;20109;-84
2023/02/21 13:45:29;;;;;;;;;;;;;;;21.89;36.02;101760.31;5018756;28;20041;-84
2023/02/21 13:48:04;;;;;;;0.80;0.80;;;;;;;21.90;36.27;101759.31;5020301;28;20044;-84
2023/02/21 13:50:39;;;;;;;0.80;0.80;;;;;;;21.87;36.05;101754.38;5020017;28;20030;-84
2023/02/21 13:53:07;;;;;;;0.90;0.90;;;;;;;21.88;36.00;101758.66;5024196;28;20064;-84
2023/02/21 13:55:36;;;;;;;0.60;0.60;;;;;;;21.86;36.32;101756.19;5021051;28;20053;-84
2023/02/21 13:58:03;;;;;;;0.70;0.70;;;;;;;21.87;36.32;101752.53;4997501;28;20064;-84
2023/02/21 14:00:29;;;;;;;0.82;0.80;;;;;;;21.85;36.33;101757.19;5019716;28;20030;-84
2023/02/21 14:03:01;;;;;;;0.75;0.75;;;;;;;21.85;36.31;101748.41;5020388;28;20741;-84
2023/02/21 14:08:32;;;;;;;0.88;0.85;;;;;;;21.84;36.09;101752.06;5022871;28;20052;-85